createdAt,value
2018-12-19T00:02:29.154Z,8.10
2018-12-19T00:05:03.980Z,6.73
2018-12-19T00:07:38.547Z,7.20
2018-12-19T00:10:13.942Z,7.27
2018-12-19T00:12:48.732Z,7.27
2018-12-19T00:15:23.513Z,16.07
2018-12-19T00:17:58.076Z,5.57
2018-12-19T00:20:32.637Z,8.60
2018-12-19T00:23:07.308Z,9.93
2018-12-19T00:25:41.998Z,10.40
2018-12-19T00:28:17.012Z,6.97
2018-12-19T00:30:51.790Z,6.33
2018-12-19T00:33:26.716Z,6.57
2018-12-19T00:36:01.289Z,6.60
2018-12-19T00:38:35.969Z,6.60
2018-12-19T00:41:10.656Z,7.20
2018-12-19T00:43:45.198Z,6.40
2018-12-19T00:46:19.989Z,6.93
2018-12-19T00:48:54.664Z,7.07
2018-12-19T00:51:29.299Z,7.10
2018-12-19T00:54:03.971Z,7.57
2018-12-19T00:56:38.746Z,7.50
2018-12-19T00:59:13.344Z,7.47
2018-12-19T01:01:47.885Z,9.50
2018-12-19T01:04:22.459Z,10.20
2018-12-19T01:06:57.234Z,7.83
2018-12-19T01:09:31.836Z,8.40
2018-12-19T01:12:06.557Z,9.53
2018-12-19T01:14:41.289Z,8.87
2018-12-19T01:17:15.847Z,9.77
2018-12-19T01:19:50.668Z,8.13
2018-12-19T01:22:25.370Z,8.63
2018-12-19T01:25:00.117Z,7.83
2018-12-19T01:27:34.788Z,7.27
2018-12-19T01:30:09.351Z,8.37
2018-12-19T01:32:44.089Z,9.40
2018-12-19T01:35:18.780Z,7.50
2018-12-19T01:37:53.497Z,8.87
2018-12-19T01:40:28.120Z,8.97
2018-12-19T01:43:02.666Z,9.70
2018-12-19T01:45:37.308Z,11.03
2018-12-19T01:48:11.924Z,14.40
2018-12-19T01:50:46.533Z,13.83
2018-12-19T01:53:21.240Z,13.97
2018-12-19T01:55:56.280Z,17.20
2018-12-19T01:58:30.906Z,12.97
2018-12-19T02:01:05.433Z,12.07
2018-12-19T02:03:39.891Z,13.53
2018-12-19T02:06:15.306Z,13.70
2018-12-19T02:08:49.752Z,15.47
2018-12-19T02:11:24.348Z,12.83
2018-12-19T02:13:58.894Z,16.27
2018-12-19T02:16:33.543Z,15.67
2018-12-19T02:19:08.202Z,16.70
2018-12-19T02:21:42.770Z,14.80
2018-12-19T02:24:17.399Z,16.00
2018-12-19T02:26:52.029Z,13.27
2018-12-19T02:29:26.814Z,11.67
2018-12-19T02:32:03.129Z,14.73
2018-12-19T02:34:38.001Z,13.80
2018-12-19T02:37:12.678Z,15.07
2018-12-19T02:39:47.402Z,14.37
2018-12-19T02:42:21.945Z,12.73
2018-12-19T02:44:56.541Z,15.97
2018-12-19T02:47:31.309Z,14.20
2018-12-19T02:50:06.504Z,12.30
2018-12-19T02:52:41.214Z,11.70
2018-12-19T02:55:15.946Z,10.53
2018-12-19T02:57:50.753Z,10.93
2018-12-19T03:00:25.387Z,12.33
2018-12-19T03:03:00.318Z,12.17
2018-12-19T03:05:34.948Z,11.70
2018-12-19T03:08:09.465Z,9.33
2018-12-19T03:10:44.056Z,10.23
2018-12-19T03:13:19.081Z,12.57
2018-12-19T03:15:53.715Z,10.70
2018-12-19T03:18:28.312Z,9.77
2018-12-19T03:21:02.984Z,10.77
2018-12-19T03:23:37.530Z,13.23
2018-12-19T03:26:12.494Z,10.50
2018-12-19T03:28:47.723Z,11.07
2018-12-19T03:31:22.354Z,10.80
2018-12-19T03:33:57.071Z,13.77
2018-12-19T03:36:31.623Z,12.17
2018-12-19T03:39:07.015Z,10.83
2018-12-19T03:41:41.746Z,12.00
2018-12-19T03:44:16.362Z,10.87
2018-12-19T03:46:51.185Z,11.67
2018-12-19T03:49:26.034Z,9.77
2018-12-19T03:52:00.586Z,10.30
2018-12-19T03:54:35.261Z,19.80
2018-12-19T03:57:10.148Z,12.07
2018-12-19T03:59:44.807Z,11.10
2018-12-19T04:02:19.494Z,16.13
2018-12-19T04:04:54.030Z,26.30
2018-12-19T04:07:28.631Z,29.27
2018-12-19T04:10:03.213Z,10.67
2018-12-19T04:12:37.796Z,11.23
2018-12-19T04:15:12.409Z,10.57
2018-12-19T04:17:46.953Z,9.27
2018-12-19T04:20:21.547Z,9.50
2018-12-19T04:22:56.191Z,8.37
2018-12-19T04:25:30.777Z,10.03
2018-12-19T04:28:05.480Z,7.27
2018-12-19T04:30:40.076Z,10.50
2018-12-19T04:33:14.875Z,8.87
2018-12-19T04:35:49.827Z,8.47
2018-12-19T04:38:24.764Z,7.63
2018-12-19T04:40:59.452Z,9.07
2018-12-19T04:43:34.108Z,8.63
2018-12-19T04:46:08.806Z,7.83
2018-12-19T04:48:43.634Z,6.83
2018-12-19T04:51:18.383Z,6.70
2018-12-19T04:53:53.015Z,7.60
2018-12-19T04:56:27.600Z,7.03
2018-12-19T04:59:02.190Z,4.60
2018-12-19T05:01:36.871Z,5.57
2018-12-19T05:04:11.528Z,5.10
2018-12-19T05:06:46.069Z,6.27
2018-12-19T05:09:20.639Z,7.40
2018-12-19T05:11:55.269Z,6.20
2018-12-19T05:14:30.012Z,6.40
2018-12-19T05:17:04.676Z,5.67
2018-12-19T05:19:39.277Z,5.43
2018-12-19T05:22:14.209Z,4.93
2018-12-19T05:24:48.937Z,5.70
2018-12-19T05:27:23.597Z,5.47
2018-12-19T05:29:58.171Z,4.50
2018-12-19T05:32:32.952Z,5.13
2018-12-19T05:35:07.622Z,4.80
2018-12-19T05:37:42.164Z,5.60
2018-12-19T05:40:18.986Z,6.03
2018-12-19T05:42:53.360Z,6.40
2018-12-19T05:45:27.996Z,5.53
2018-12-19T05:48:02.600Z,7.33
2018-12-19T05:50:37.321Z,5.50
2018-12-19T05:53:12.100Z,5.60
2018-12-19T05:55:46.810Z,6.97
2018-12-19T05:58:21.507Z,6.10
2018-12-19T06:00:56.872Z,6.47
2018-12-19T06:03:31.408Z,11.47
2018-12-19T06:06:06.105Z,9.53
2018-12-19T06:08:40.642Z,10.80
2018-12-19T06:11:15.291Z,11.50
2018-12-19T06:13:49.845Z,8.97
2018-12-19T06:16:24.711Z,11.17
2018-12-19T06:18:59.281Z,12.67
2018-12-19T06:21:34.024Z,17.40
2018-12-19T06:24:08.576Z,16.00
2018-12-19T06:26:43.338Z,12.97
2018-12-19T06:29:18.039Z,12.53
2018-12-19T06:31:52.739Z,11.97
2018-12-19T06:34:27.227Z,12.97
2018-12-19T06:37:01.909Z,13.80
2018-12-19T06:39:36.640Z,12.07
2018-12-19T06:42:11.399Z,13.17
2018-12-19T06:44:46.008Z,14.07
2018-12-19T06:47:20.615Z,12.23
2018-12-19T06:49:55.251Z,15.40
2018-12-19T06:52:29.944Z,15.33
2018-12-19T06:55:05.212Z,17.03
2018-12-19T06:57:40.051Z,27.13
2018-12-19T07:00:14.759Z,36.47
2018-12-19T07:02:49.564Z,32.67
2018-12-19T07:05:24.275Z,30.70
2018-12-19T07:07:59.125Z,13.67
2018-12-19T07:10:38.952Z,10.47
2018-12-19T07:13:10.169Z,6.53
2018-12-19T07:15:44.925Z,7.00
2018-12-19T07:18:19.574Z,4.83
2018-12-19T07:20:54.460Z,2.73
2018-12-19T07:23:29.183Z,2.53
2018-12-19T07:26:03.855Z,2.07
2018-12-19T07:28:38.550Z,5.30
2018-12-19T07:31:13.432Z,2.70
2018-12-19T07:33:48.107Z,2.87
2018-12-19T07:36:22.948Z,3.00
2018-12-19T07:38:57.662Z,4.20
2018-12-19T07:41:32.261Z,4.40
2018-12-19T07:44:07.756Z,2.57
2018-12-19T07:46:42.256Z,2.87
2018-12-19T07:49:16.904Z,3.03
2018-12-19T07:51:51.476Z,2.47
2018-12-19T07:54:26.147Z,32.53
2018-12-19T07:57:00.886Z,4.43
2018-12-19T07:59:35.501Z,4.00
2018-12-19T08:02:10.197Z,2.37
2018-12-19T08:04:44.964Z,3.00
2018-12-19T08:07:19.626Z,2.50
2018-12-19T08:09:54.394Z,5.70
2018-12-19T08:12:29.102Z,2.50
2018-12-19T08:15:04.112Z,7.10
2018-12-19T08:17:38.739Z,3.17
2018-12-19T08:20:13.508Z,3.97
2018-12-19T08:22:48.938Z,3.10
2018-12-19T08:25:23.579Z,3.13
2018-12-19T08:27:58.259Z,5.80
2018-12-19T08:30:32.898Z,8.60
2018-12-19T08:33:07.531Z,5.13
2018-12-19T08:35:42.048Z,3.70
2018-12-19T08:38:16.698Z,2.23
2018-12-19T08:40:51.304Z,2.70
2018-12-19T08:43:25.865Z,2.27
2018-12-19T08:46:00.921Z,2.43
2018-12-19T08:48:35.653Z,2.50
2018-12-19T08:51:10.421Z,4.50
2018-12-19T08:53:45.048Z,3.47
2018-12-19T08:56:19.693Z,3.17
2018-12-19T08:58:54.459Z,2.63
2018-12-19T09:01:29.327Z,4.53
2018-12-19T09:04:04.751Z,5.03
2018-12-19T09:06:39.228Z,2.23
2018-12-19T09:09:13.913Z,4.33
2018-12-19T09:11:50.008Z,2.20
2018-12-19T09:14:24.989Z,2.60
2018-12-19T09:16:59.601Z,2.40
2018-12-19T09:19:34.328Z,2.53
2018-12-19T09:22:09.081Z,2.40
2018-12-19T09:24:43.764Z,15.77
2018-12-19T09:27:18.308Z,6.40
2018-12-19T09:29:52.930Z,11.10
2018-12-19T09:32:27.588Z,10.20
2018-12-19T09:35:02.100Z,4.40
2018-12-19T09:37:36.680Z,4.60
2018-12-19T09:40:11.515Z,3.30
2018-12-19T09:42:46.235Z,6.27
2018-12-19T09:45:20.976Z,4.17
2018-12-19T09:47:55.659Z,2.30
2018-12-19T09:50:30.340Z,2.43
2018-12-19T09:53:04.822Z,1.93
2018-12-19T09:55:39.383Z,1.77
2018-12-19T09:58:14.051Z,2.57
2018-12-19T10:00:48.585Z,1.90
2018-12-19T10:03:23.300Z,1.43
2018-12-19T10:05:57.947Z,1.73
2018-12-19T10:08:32.644Z,1.83
2018-12-19T10:11:07.365Z,2.33
2018-12-19T10:13:42.007Z,1.63
2018-12-19T10:16:16.724Z,1.70
2018-12-19T10:18:51.352Z,4.13
2018-12-19T10:21:26.097Z,2.90
2018-12-19T10:24:00.683Z,8.23
2018-12-19T10:26:35.428Z,10.63
2018-12-19T10:29:09.989Z,3.80
2018-12-19T10:31:44.600Z,3.37
2018-12-19T10:34:19.346Z,6.33
2018-12-19T10:36:54.087Z,4.40
2018-12-19T10:39:28.823Z,3.17
2018-12-19T10:42:03.519Z,4.37
2018-12-19T10:44:38.266Z,2.67
2018-12-19T10:47:12.897Z,3.37
2018-12-19T10:49:47.522Z,9.07
2018-12-19T10:52:22.142Z,7.80
2018-12-19T10:54:57.092Z,8.80
2018-12-19T10:57:31.740Z,10.43
2018-12-19T11:00:09.756Z,10.93
2018-12-19T11:02:44.272Z,14.47
2018-12-19T11:05:18.897Z,15.63
2018-12-19T11:07:53.408Z,15.03
2018-12-19T11:10:28.712Z,26.93
2018-12-19T11:13:04.040Z,22.77
2018-12-19T11:15:38.625Z,24.53
2018-12-19T11:18:13.247Z,25.37
2018-12-19T11:20:47.838Z,25.20
2018-12-19T11:23:22.381Z,10.10
2018-12-19T11:25:56.949Z,7.23
2018-12-19T11:28:31.563Z,8.47
2018-12-19T11:31:06.154Z,13.57
2018-12-19T11:33:40.687Z,13.90
2018-12-19T11:36:15.333Z,2.63
2018-12-19T11:38:50.017Z,7.33
2018-12-19T11:41:25.212Z,4.13
2018-12-19T11:43:59.749Z,7.57
2018-12-19T11:46:34.334Z,7.23
2018-12-19T11:49:09.011Z,35.47
2018-12-19T11:51:43.755Z,9.00
2018-12-19T11:54:18.699Z,6.50
2018-12-19T11:56:53.475Z,11.57
2018-12-19T11:59:28.112Z,17.07
2018-12-19T12:02:02.740Z,19.00
2018-12-19T12:04:37.330Z,21.93
2018-12-19T12:07:12.221Z,29.60
2018-12-19T12:09:46.941Z,26.53
2018-12-19T12:12:21.667Z,20.43
2018-12-19T12:14:56.331Z,20.53
2018-12-19T12:17:30.919Z,16.60
2018-12-19T12:20:06.729Z,15.70
2018-12-19T12:22:41.387Z,13.63
2018-12-19T12:25:15.917Z,17.77
2018-12-19T12:27:50.548Z,18.80
2018-12-19T12:30:25.370Z,17.03
2018-12-19T12:33:01.584Z,14.90
2018-12-19T12:35:36.477Z,16.27
2018-12-19T12:38:11.189Z,12.30
2018-12-19T12:40:46.228Z,15.97
2018-12-19T12:43:20.972Z,13.60
2018-12-19T12:45:55.514Z,12.80
2018-12-19T12:48:30.153Z,10.33
2018-12-19T12:51:04.799Z,9.23
2018-12-19T12:53:39.503Z,12.17
2018-12-19T12:56:15.056Z,12.90
2018-12-19T12:58:50.487Z,18.50
2018-12-19T13:01:25.019Z,12.80
2018-12-19T13:03:59.747Z,12.53
2018-12-19T13:06:34.744Z,4.80
2018-12-19T13:09:09.432Z,3.73
2018-12-19T13:11:44.652Z,4.40
2018-12-19T13:14:19.465Z,5.07
2018-12-19T13:16:54.159Z,5.40
2018-12-19T13:19:28.815Z,4.10
2018-12-19T13:22:03.492Z,3.30
2018-12-19T13:24:38.220Z,3.70
2018-12-19T13:27:12.979Z,3.40
2018-12-19T13:29:47.664Z,3.13
2018-12-19T13:32:23.088Z,3.60
2018-12-19T13:34:57.866Z,3.70
2018-12-19T13:37:32.657Z,5.20
2018-12-19T13:40:07.994Z,4.53
2018-12-19T13:42:42.563Z,4.43
2018-12-19T13:45:17.216Z,4.90
2018-12-19T13:47:52.008Z,5.33
2018-12-19T13:50:26.755Z,4.40
2018-12-19T13:53:01.670Z,4.50
2018-12-19T13:55:36.669Z,4.90
2018-12-19T13:58:11.344Z,5.17
2018-12-19T14:00:45.928Z,5.50
2018-12-19T14:03:20.573Z,5.00
2018-12-19T14:05:55.126Z,7.30
2018-12-19T14:08:29.813Z,6.07
2018-12-19T14:11:05.143Z,4.50
2018-12-19T14:13:39.843Z,11.27
2018-12-19T14:16:14.632Z,4.33
2018-12-19T14:18:49.346Z,6.23
2018-12-19T14:21:24.020Z,4.77
2018-12-19T14:23:59.321Z,5.00
2018-12-19T14:26:33.916Z,5.10
2018-12-19T14:29:08.568Z,5.97
2018-12-19T14:31:43.151Z,6.60
2018-12-19T14:34:17.930Z,5.60
2018-12-19T14:36:52.493Z,4.60
2018-12-19T14:39:27.420Z,5.07
2018-12-19T14:42:02.129Z,4.00
2018-12-19T14:44:36.895Z,8.13
2018-12-19T14:47:11.579Z,4.97
2018-12-19T14:49:46.079Z,6.27
2018-12-19T14:52:20.753Z,5.50
2018-12-19T14:54:55.507Z,4.77
2018-12-19T14:57:30.270Z,4.90
2018-12-19T15:00:08.032Z,6.50
2018-12-19T15:02:42.725Z,6.90
2018-12-19T15:05:17.408Z,8.83
2018-12-19T15:07:52.033Z,6.57
2018-12-19T15:10:26.716Z,7.97
2018-12-19T15:13:01.379Z,9.63
2018-12-19T15:15:36.174Z,10.03
2018-12-19T15:18:11.253Z,8.70
2018-12-19T15:20:45.764Z,7.07
2018-12-19T15:23:20.356Z,7.47
2018-12-19T15:25:55.108Z,12.23
2018-12-19T15:28:29.830Z,10.37
2018-12-19T15:31:04.606Z,12.17
2018-12-19T15:33:39.166Z,9.33
2018-12-19T15:36:14.240Z,7.33
2018-12-19T15:38:48.876Z,9.17
2018-12-19T15:41:23.514Z,10.73
2018-12-19T15:43:58.287Z,7.57
2018-12-19T15:46:32.886Z,10.03
2018-12-19T15:49:07.548Z,11.50
2018-12-19T15:51:42.107Z,9.47
2018-12-19T15:54:16.699Z,10.77
2018-12-19T15:56:51.331Z,12.43
2018-12-19T15:59:26.086Z,9.80
2018-12-19T16:02:00.741Z,17.77
2018-12-19T16:04:35.553Z,18.40
2018-12-19T16:07:10.341Z,78.37
2018-12-19T16:09:45.066Z,15.80
2018-12-19T16:12:19.753Z,11.10
2018-12-19T16:14:54.516Z,11.33
2018-12-19T16:17:29.053Z,9.53
2018-12-19T16:20:03.911Z,7.90
2018-12-19T16:22:38.653Z,8.77
2018-12-19T16:25:13.463Z,10.03
2018-12-19T16:27:48.160Z,12.93
2018-12-19T16:30:23.105Z,12.00
2018-12-19T16:32:57.721Z,18.63
2018-12-19T16:35:32.363Z,17.53
2018-12-19T16:38:06.966Z,24.57
2018-12-19T16:40:41.733Z,21.87
2018-12-19T16:43:16.412Z,12.73
2018-12-19T16:45:51.005Z,18.63
2018-12-19T16:48:25.688Z,31.07
2018-12-19T16:51:00.433Z,23.43
2018-12-19T16:53:35.037Z,15.20
2018-12-19T16:56:09.714Z,20.97
2018-12-19T16:58:44.773Z,26.43
2018-12-19T17:01:19.505Z,26.10
2018-12-19T17:03:54.105Z,18.57
2018-12-19T17:06:28.723Z,9.70
2018-12-19T17:09:03.469Z,15.23
2018-12-19T17:11:38.528Z,26.90
2018-12-19T17:14:13.181Z,21.33
2018-12-19T17:16:47.665Z,27.50
2018-12-19T17:19:22.286Z,23.87
2018-12-19T17:21:56.951Z,23.87
2018-12-19T17:24:37.172Z,30.33
2018-12-19T17:27:11.727Z,15.20
2018-12-19T17:29:46.472Z,5.13
2018-12-19T17:32:21.459Z,2.20
2018-12-19T17:34:56.658Z,2.50
2018-12-19T17:37:31.475Z,2.07
2018-12-19T17:40:06.498Z,2.87
2018-12-19T17:42:41.261Z,2.27
2018-12-19T17:45:15.922Z,2.87
2018-12-19T17:47:50.516Z,2.37
2018-12-19T17:50:25.086Z,2.83
2018-12-19T17:52:59.785Z,4.17
2018-12-19T17:55:35.092Z,1.93
2018-12-19T17:58:09.669Z,2.10
2018-12-19T18:00:44.484Z,2.03
2018-12-19T18:03:19.291Z,1.53
2018-12-19T18:05:53.945Z,1.60
2018-12-19T18:08:28.715Z,1.50
2018-12-19T18:11:03.533Z,1.27
2018-12-19T18:13:38.226Z,1.80
2018-12-19T18:16:13.004Z,1.70
2018-12-19T18:18:47.575Z,1.60
2018-12-19T18:21:22.217Z,1.70
2018-12-19T18:23:57.021Z,1.80
2018-12-19T18:26:31.728Z,2.10
2018-12-19T18:29:06.473Z,2.53
2018-12-19T18:31:41.276Z,3.60
2018-12-19T18:34:16.035Z,9.47
2018-12-19T18:36:50.780Z,13.87
2018-12-19T18:39:26.259Z,17.70
2018-12-19T18:42:01.341Z,10.07
2018-12-19T18:44:36.039Z,1.93
2018-12-19T18:47:10.795Z,1.20
2018-12-19T18:49:45.391Z,1.77
2018-12-19T18:52:20.008Z,1.40
2018-12-19T18:54:54.707Z,2.73
2018-12-19T18:57:29.796Z,2.80
2018-12-19T19:00:07.355Z,1.67
2018-12-19T19:02:42.372Z,1.70
2018-12-19T19:05:17.263Z,2.10
2018-12-19T19:07:51.872Z,2.53
2018-12-19T19:10:26.475Z,24.33
2018-12-19T19:13:01.252Z,13.20
2018-12-19T19:15:35.940Z,8.30
2018-12-19T19:18:10.629Z,4.83
2018-12-19T19:20:45.217Z,4.47
2018-12-19T19:23:19.903Z,3.80
2018-12-19T19:25:54.566Z,2.90
2018-12-19T19:28:29.053Z,3.17
2018-12-19T19:31:03.773Z,10.90
2018-12-19T19:33:38.608Z,6.13
2018-12-19T19:36:13.367Z,11.17
2018-12-19T19:38:48.152Z,6.10
2018-12-19T19:41:22.973Z,3.63
2018-12-19T19:43:57.515Z,2.73
2018-12-19T19:46:32.099Z,3.00
2018-12-19T19:49:06.730Z,2.17
2018-12-19T19:51:41.514Z,3.60
2018-12-19T19:54:16.314Z,2.73
2018-12-19T19:56:51.055Z,2.33
2018-12-19T19:59:25.675Z,3.47
2018-12-19T20:02:00.261Z,3.43
2018-12-19T20:04:34.814Z,3.93
2018-12-19T20:07:09.447Z,3.73
2018-12-19T20:09:45.196Z,3.20
2018-12-19T20:12:19.886Z,2.77
2018-12-19T20:14:54.517Z,2.30
2018-12-19T20:17:29.104Z,1.90
2018-12-19T20:20:03.709Z,1.37
2018-12-19T20:22:38.318Z,1.37
2018-12-19T20:25:13.114Z,1.50
2018-12-19T20:27:47.892Z,1.40
2018-12-19T20:30:22.663Z,1.70
2018-12-19T20:32:57.412Z,1.20
2018-12-19T20:35:32.005Z,5.80
2018-12-19T20:38:06.598Z,1.50
2018-12-19T20:40:41.219Z,1.40
2018-12-19T20:43:15.909Z,1.80
2018-12-19T20:45:50.628Z,1.90
2018-12-19T20:48:25.308Z,1.10
2018-12-19T20:50:59.899Z,1.30
2018-12-19T20:53:34.540Z,1.30
2018-12-19T20:56:09.458Z,1.00
2018-12-19T20:58:44.091Z,1.90
2018-12-19T21:01:18.851Z,1.20
2018-12-19T21:03:53.422Z,1.20
2018-12-19T21:06:28.043Z,1.37
2018-12-19T21:09:02.777Z,1.10
2018-12-19T21:11:39.348Z,1.23
2018-12-19T21:14:13.860Z,1.00
2018-12-19T21:19:50.909Z,1.65
2018-12-19T21:22:25.501Z,1.97
2018-12-19T21:25:00.167Z,1.30
2018-12-19T21:27:34.734Z,1.33
2018-12-19T21:30:09.778Z,12.93
2018-12-19T21:32:44.392Z,21.70
2018-12-19T21:35:19.069Z,10.50
2018-12-19T21:37:53.941Z,3.47
2018-12-19T21:40:28.632Z,1.80
2018-12-19T21:43:03.950Z,3.07
2018-12-19T21:45:38.505Z,2.70
2018-12-19T21:48:13.276Z,4.53
2018-12-19T21:50:47.876Z,7.47
2018-12-19T21:53:22.391Z,5.30
2018-12-19T21:55:57.166Z,7.17
2018-12-19T21:58:31.989Z,5.77
2018-12-19T22:01:06.585Z,5.83
2018-12-19T22:03:41.064Z,5.10
2018-12-19T22:06:15.673Z,4.77
2018-12-19T22:08:50.378Z,2.70
2018-12-19T22:11:25.270Z,4.07
2018-12-19T22:14:00.732Z,4.07
2018-12-19T22:16:41.042Z,4.80
2018-12-19T22:19:15.682Z,8.30
2018-12-19T22:21:50.303Z,8.57
2018-12-19T22:24:25.264Z,8.20
2018-12-19T22:27:00.193Z,8.23
2018-12-19T22:29:35.238Z,7.90
2018-12-19T22:32:10.244Z,12.20
2018-12-19T22:34:45.113Z,9.40
2018-12-19T22:37:20.031Z,14.37
2018-12-19T22:39:54.738Z,10.73
2018-12-19T22:42:29.726Z,6.23
2018-12-19T22:45:05.265Z,9.03
2018-12-19T22:47:40.220Z,10.87
2018-12-19T22:50:14.837Z,10.03
2018-12-19T22:52:49.571Z,12.93
2018-12-19T22:55:30.652Z,14.57
2018-12-19T22:58:05.725Z,7.63
2018-12-19T23:03:54.608Z,8.08
2018-12-19T23:06:29.359Z,8.43
2018-12-19T23:09:06.386Z,8.17
2018-12-19T23:11:41.296Z,7.10
2018-12-19T23:14:16.077Z,6.33
2018-12-19T23:16:51.024Z,6.90
2018-12-19T23:19:25.704Z,7.77
2018-12-19T23:22:00.333Z,13.33
2018-12-19T23:24:34.987Z,12.57
2018-12-19T23:27:09.940Z,12.33
2018-12-19T23:29:45.018Z,18.83
2018-12-19T23:32:21.782Z,18.53
2018-12-19T23:34:57.084Z,17.23
2018-12-19T23:37:32.114Z,15.77
2018-12-19T23:40:07.148Z,14.43
2018-12-19T23:42:41.952Z,13.00
2018-12-19T23:45:16.578Z,11.20
2018-12-19T23:47:51.343Z,9.53
2018-12-19T23:50:25.995Z,12.63
2018-12-19T23:53:00.694Z,10.27
2018-12-19T23:55:35.632Z,8.80
2018-12-19T23:58:10.316Z,8.17
